sensor_id;sensor_type;location;lat;lon;timestamp;pressure;altitude;pressure_sealevel;temperature;humidity
60852;BME280;48553;50.766;2.900;2023-01-05T00:00:29;101323.06;;;9.71;100.00
60852;BME280;48553;50.766;2.900;2023-01-05T00:03:32;101312.13;;;9.71;100.00
60852;BME280;48553;50.766;2.900;2023-01-05T00:06:33;101317.28;;;9.73;100.00
60852;BME280;48553;50.766;2.900;2023-01-05T00:09:33;101306.50;;;9.68;100.00
60852;BME280;48553;50.766;2.900;2023-01-05T00:12:34;101322.59;;;9.69;100.00
60852;BME280;48553;50.766;2.900;2023-01-05T00:15:53;101308.91;;;9.69;100.00
60852;BME280;48553;50.766;2.900;2023-01-05T00:19:12;101313.25;;;9.70;100.00
60852;BME280;48553;50.766;2.900;2023-01-05T00:22:33;101308.91;;;9.69;100.00
60852;BME280;48553;50.766;2.900;2023-01-05T00:25:39;101311.13;;;9.67;100.00
60852;BME280;48553;50.766;2.900;2023-01-05T00:28:40;101304.25;;;9.70;100.00
60852;BME280;48553;50.766;2.900;2023-01-05T00:31:40;101298.44;;;9.71;100.00
60852;BME280;48553;50.766;2.900;2023-01-05T00:34:40;101299.88;;;9.69;100.00
60852;BME280;48553;50.766;2.900;2023-01-05T00:37:42;101303.63;;;9.73;100.00
60852;BME280;48553;50.766;2.900;2023-01-05T00:40:42;101304.25;;;9.70;100.00
60852;BME280;48553;50.766;2.900;2023-01-05T00:43:43;101297.00;;;9.74;100.00
60852;BME280;48553;50.766;2.900;2023-01-05T00:46:43;101294.91;;;9.71;100.00
60852;BME280;48553;50.766;2.900;2023-01-05T00:49:43;101295.22;;;9.69;100.00
60852;BME280;48553;50.766;2.900;2023-01-05T00:52:44;101284.25;;;9.69;100.00
60852;BME280;48553;50.766;2.900;2023-01-05T00:55:55;101280.09;;;9.72;100.00
60852;BME280;48553;50.766;2.900;2023-01-05T00:58:55;101280.09;;;9.72;100.00
60852;BME280;48553;50.766;2.900;2023-01-05T01:01:55;101285.25;;;9.73;100.00
60852;BME280;48553;50.766;2.900;2023-01-05T01:04:56;101284.94;;;9.75;100.00
60852;BME280;48553;50.766;2.900;2023-01-05T01:07:56;101285.75;;;9.75;100.00
60852;BME280;48553;50.766;2.900;2023-01-05T01:11:03;101271.88;;;9.72;100.00
60852;BME280;48553;50.766;2.900;2023-01-05T01:14:06;101285.56;;;9.72;100.00
60852;BME280;48553;50.766;2.900;2023-01-05T01:17:06;101274.16;;;9.70;100.00
60852;BME280;48553;50.766;2.900;2023-01-05T01:20:07;101283.97;;;9.71;100.00
60852;BME280;48553;50.766;2.900;2023-01-05T01:23:08;101289.25;;;9.67;100.00
60852;BME280;48553;50.766;2.900;2023-01-05T01:26:10;101287.66;;;9.66;100.00
60852;BME280;48553;50.766;2.900;2023-01-05T01:29:12;101287.84;;;9.70;100.00
60852;BME280;48553;50.766;2.900;2023-01-05T01:32:12;101290.69;;;9.65;100.00
60852;BME280;48553;50.766;2.900;2023-01-05T01:35:13;101292.13;;;9.62;100.00
60852;BME280;48553;50.766;2.900;2023-01-05T01:38:13;101303.25;;;9.66;100.00
60852;BME280;48553;50.766;2.900;2023-01-05T01:41:14;101296.50;;;9.63;100.00
60852;BME280;48553;50.766;2.900;2023-01-05T01:47:57;101310.28;;;9.58;100.00
60852;BME280;48553;50.766;2.900;2023-01-05T01:51:02;101309.50;;;9.57;100.00
60852;BME280;48553;50.766;2.900;2023-01-05T01:54:07;101300.19;;;9.58;100.00
60852;BME280;48553;50.766;2.900;2023-01-05T01:57:09;101296.31;;;9.59;100.00
60852;BME280;48553;50.766;2.900;2023-01-05T02:00:12;101291.97;;;9.58;100.00
60852;BME280;48553;50.766;2.900;2023-01-05T02:03:14;101293.56;;;9.59;100.00
60852;BME280;48553;50.766;2.900;2023-01-05T02:06:15;101304.81;;;9.58;100.00
60852;BME280;48553;50.766;2.900;2023-01-05T02:09:16;101305.66;;;9.58;100.00
60852;BME280;48553;50.766;2.900;2023-01-05T02:15:43;101305.97;;;9.57;100.00
60852;BME280;48553;50.766;2.900;2023-01-05T02:31:59;101330.72;;;9.52;100.00
60852;BME280;48553;50.766;2.900;2023-01-05T02:35:29;101326.06;;;9.52;100.00
60852;BME280;48553;50.766;2.900;2023-01-05T02:38:43;101343.56;;;9.51;100.00
60852;BME280;48553;50.766;2.900;2023-01-05T02:41:56;101350.50;;;9.49;100.00
60852;BME280;48553;50.766;2.900;2023-01-05T02:45:00;101355.16;;;9.48;100.00
60852;BME280;48553;50.766;2.900;2023-01-05T02:48:01;101356.78;;;9.49;100.00
60852;BME280;48553;50.766;2.900;2023-01-05T02:51:05;101346.16;;;9.48;100.00
60852;BME280;48553;50.766;2.900;2023-01-05T02:54:35;101342.28;;;9.49;100.00
60852;BME280;48553;50.766;2.900;2023-01-05T02:57:37;101334.41;;;9.47;100.00
60852;BME280;48553;50.766;2.900;2023-01-05T03:00:50;101335.50;;;9.46;100.00
60852;BME280;48553;50.766;2.900;2023-01-05T03:03:56;101321.84;;;9.46;100.00
60852;BME280;48553;50.766;2.900;2023-01-05T03:07:01;101321.84;;;9.46;100.00
60852;BME280;48553;50.766;2.900;2023-01-05T03:10:03;101330.03;;;9.46;100.00
60852;BME280;48553;50.766;2.900;2023-01-05T03:13:26;101319.41;;;9.45;100.00
60852;BME280;48553;50.766;2.900;2023-01-05T03:16:45;101323.78;;;9.46;100.00
60852;BME280;48553;50.766;2.900;2023-01-05T03:19:48;101339.88;;;9.47;100.00
60852;BME280;48553;50.766;2.900;2023-01-05T03:22:50;101336.16;;;9.43;100.00
60852;BME280;48553;50.766;2.900;2023-01-05T03:26:11;101345.97;;;9.44;100.00
60852;BME280;48553;50.766;2.900;2023-01-05T03:29:31;101359.13;;;9.42;100.00
60852;BME280;48553;50.766;2.900;2023-01-05T03:32:52;101359.97;;;9.43;100.00
60852;BME280;48553;50.766;2.900;2023-01-05T03:36:17;101359.97;;;9.43;100.00
60852;BME280;48553;50.766;2.900;2023-01-05T03:39:24;101361.38;;;9.40;100.00
60852;BME280;48553;50.766;2.900;2023-01-05T03:42:28;101375.88;;;9.40;100.00
60852;BME280;48553;50.766;2.900;2023-01-05T03:45:39;101362.50;;;9.39;100.00
60852;BME280;48553;50.766;2.900;2023-01-05T03:48:40;101363.31;;;9.39;100.00
60852;BME280;48553;50.766;2.900;2023-01-05T03:51:41;101374.59;;;9.38;100.00
60852;BME280;48553;50.766;2.900;2023-01-05T03:54:41;101377.31;;;9.38;100.00
60852;BME280;48553;50.766;2.900;2023-01-05T03:57:42;101369.13;;;9.38;100.00
60852;BME280;48553;50.766;2.900;2023-01-05T04:00:42;101364.13;;;9.40;100.00
60852;BME280;48553;50.766;2.900;2023-01-05T04:03:43;101358.97;;;9.38;100.00
60852;BME280;48553;50.766;2.900;2023-01-05T04:06:43;101354.44;;;9.34;100.00
60852;BME280;48553;50.766;2.900;2023-01-05T04:09:43;101364.88;;;9.32;100.00
60852;BME280;48553;50.766;2.900;2023-01-05T04:12:44;101362.66;;;9.34;100.00
60852;BME280;48553;50.766;2.900;2023-01-05T04:15:47;101364.25;;;9.35;100.00
60852;BME280;48553;50.766;2.900;2023-01-05T04:18:47;101360.53;;;9.31;100.00
60852;BME280;48553;50.766;2.900;2023-01-05T04:21:47;101359.13;;;9.33;100.00
60852;BME280;48553;50.766;2.900;2023-01-05T04:24:48;101359.59;;;9.35;100.00
60852;BME280;48553;50.766;2.900;2023-01-05T04:27:48;101362.66;;;9.34;100.00
60852;BME280;48553;50.766;2.900;2023-01-05T04:30:50;101367.13;;;9.30;100.00
60852;BME280;48553;50.766;2.900;2023-01-05T04:33:51;101368.72;;;9.31;100.00
60852;BME280;48553;50.766;2.900;2023-01-05T04:36:51;101363.44;;;9.34;100.00
60852;BME280;48553;50.766;2.900;2023-01-05T04:39:52;101363.75;;;9.33;100.00
60852;BME280;48553;50.766;2.900;2023-01-05T04:42:52;101356.38;;;9.33;100.00
60852;BME280;48553;50.766;2.900;2023-01-05T04:45:53;101350.06;;;9.33;100.00
60852;BME280;48553;50.766;2.900;2023-01-05T04:48:53;101352.31;;;9.31;100.00
60852;BME280;48553;50.766;2.900;2023-01-05T04:51:54;101347.97;;;9.30;100.00
60852;BME280;48553;50.766;2.900;2023-01-05T04:54:54;101351.22;;;9.32;100.00
60852;BME280;48553;50.766;2.900;2023-01-05T04:57:54;101344.44;;;9.29;100.00
60852;BME280;48553;50.766;2.900;2023-01-05T05:00:55;101354.09;;;9.27;100.00
60852;BME280;48553;50.766;2.900;2023-01-05T05:03:55;101363.09;;;9.27;100.00
60852;BME280;48553;50.766;2.900;2023-01-05T05:06:56;101362.75;;;9.29;100.00
60852;BME280;48553;50.766;2.900;2023-01-05T05:09:57;101377.25;;;9.29;100.00
60852;BME280;48553;50.766;2.900;2023-01-05T05:12:58;101380.09;;;9.24;100.00
60852;BME280;48553;50.766;2.900;2023-01-05T05:15:58;101382.53;;;9.26;100.00
60852;BME280;48553;50.766;2.900;2023-01-05T05:18:59;101384.78;;;9.24;100.00
60852;BME280;48553;50.766;2.900;2023-01-05T05:21:59;101384.78;;;9.24;100.00
60852;BME280;48553;50.766;2.900;2023-01-05T05:25:00;101381.72;;;9.25;100.00
60852;BME280;48553;50.766;2.900;2023-01-05T05:28:00;101385.09;;;9.22;100.00
60852;BME280;48553;50.766;2.900;2023-01-05T05:31:01;101387.50;;;9.24;100.00
60852;BME280;48553;50.766;2.900;2023-01-05T05:34:01;101399.06;;;9.20;100.00
60852;BME280;48553;50.766;2.900;2023-01-05T05:37:02;101406.47;;;9.20;100.00
60852;BME280;48553;50.766;2.900;2023-01-05T05:40:02;101398.56;;;9.18;100.00
60852;BME280;48553;50.766;2.900;2023-01-05T05:43:03;101411.13;;;9.19;100.00
60852;BME280;48553;50.766;2.900;2023-01-05T05:46:03;101410.66;;;9.17;100.00
60852;BME280;48553;50.766;2.900;2023-01-05T05:49:04;101422.69;;;9.16;100.00
60852;BME280;48553;50.766;2.900;2023-01-05T05:52:06;101423.81;;;9.15;100.00
60852;BME280;48553;50.766;2.900;2023-01-05T05:55:07;101428.97;;;9.17;100.00
60852;BME280;48553;50.766;2.900;2023-01-05T05:58:07;101426.56;;;9.15;100.00
60852;BME280;48553;50.766;2.900;2023-01-05T06:01:08;101431.69;;;9.17;100.00
60852;BME280;48553;50.766;2.900;2023-01-05T06:04:09;101426.84;;;9.14;100.00
60852;BME280;48553;50.766;2.900;2023-01-05T06:07:10;101428.28;;;9.11;100.00
60852;BME280;48553;50.766;2.900;2023-01-05T06:10:11;101432.63;;;9.12;100.00
60852;BME280;48553;50.766;2.900;2023-01-05T06:13:11;101444.69;;;9.11;100.00
60852;BME280;48553;50.766;2.900;2023-01-05T06:16:12;101440.31;;;9.10;100.00
60852;BME280;48553;50.766;2.900;2023-01-05T06:19:12;101437.59;;;9.10;100.00
60852;BME280;48553;50.766;2.900;2023-01-05T06:22:12;101439.34;;;9.06;100.00
60852;BME280;48553;50.766;2.900;2023-01-05T06:25:13;101443.97;;;9.06;100.00
60852;BME280;48553;50.766;2.900;2023-01-05T06:28:13;101457.34;;;9.07;100.00
60852;BME280;48553;50.766;2.900;2023-01-05T06:31:14;101449.16;;;9.07;100.00
60852;BME280;48553;50.766;2.900;2023-01-05T06:34:14;101465.06;;;9.05;100.00
60852;BME280;48553;50.766;2.900;2023-01-05T06:37:15;101460.72;;;9.04;100.00
60852;BME280;48553;50.766;2.900;2023-01-05T06:40:15;101464.56;;;9.03;100.00
60852;BME280;48553;50.766;2.900;2023-01-05T06:43:16;101467.59;;;9.02;100.00
60852;BME280;48553;50.766;2.900;2023-01-05T06:46:16;101470.81;;;9.04;100.00
60852;BME280;48553;50.766;2.900;2023-01-05T06:49:17;101470.00;;;9.03;100.00
60852;BME280;48553;50.766;2.900;2023-01-05T06:52:17;101476.63;;;9.02;100.00
60852;BME280;48553;50.766;2.900;2023-01-05T06:55:17;101485.41;;;8.99;100.00
60852;BME280;48553;50.766;2.900;2023-01-05T06:58:18;101482.38;;;9.01;100.00
60852;BME280;48553;50.766;2.900;2023-01-05T07:01:18;101494.25;;;8.96;100.00
60852;BME280;48553;50.766;2.900;2023-01-05T07:04:19;101488.16;;;8.99;100.00
60852;BME280;48553;50.766;2.900;2023-01-05T07:07:19;101490.41;;;8.97;100.00
60852;BME280;48553;50.766;2.900;2023-01-05T07:10:20;101488.78;;;8.96;100.00
60852;BME280;48553;50.766;2.900;2023-01-05T07:13:20;101490.69;;;8.95;100.00
60852;BME280;48553;50.766;2.900;2023-01-05T07:16:21;101489.91;;;8.95;100.00
60852;BME280;48553;50.766;2.900;2023-01-05T07:19:21;101496.47;;;8.94;100.00
60852;BME280;48553;50.766;2.900;2023-01-05T07:22:22;101498.91;;;8.95;100.00
60852;BME280;48553;50.766;2.900;2023-01-05T07:25:22;101500.31;;;8.93;100.00
60852;BME280;48553;50.766;2.900;2023-01-05T07:28:23;101499.50;;;8.92;100.00
60852;BME280;48553;50.766;2.900;2023-01-05T07:31:23;101506.38;;;8.90;100.00
60852;BME280;48553;50.766;2.900;2023-01-05T07:34:24;101505.88;;;8.88;100.00
60852;BME280;48553;50.766;2.900;2023-01-05T07:37:24;101501.25;;;8.88;100.00
60852;BME280;48553;50.766;2.900;2023-01-05T07:40:24;101506.38;;;8.90;100.00
60852;BME280;48553;50.766;2.900;2023-01-05T07:43:25;101499.63;;;8.87;100.00
60852;BME280;48553;50.766;2.900;2023-01-05T07:46:26;101511.34;;;8.88;100.00
60852;BME280;48553;50.766;2.900;2023-01-05T07:49:26;101508.63;;;8.88;100.00
60852;BME280;48553;50.766;2.900;2023-01-05T07:52:28;101512.47;;;8.87;100.00
60852;BME280;48553;50.766;2.900;2023-01-05T07:55:29;101520.69;;;8.87;100.00
60852;BME280;48553;50.766;2.900;2023-01-05T07:58:30;101522.91;;;8.85;100.00
60852;BME280;48553;50.766;2.900;2023-01-05T08:01:31;101522.28;;;8.88;100.00
60852;BME280;48553;50.766;2.900;2023-01-05T08:04:31;101523.91;;;8.89;100.00
60852;BME280;48553;50.766;2.900;2023-01-05T08:07:34;101518.75;;;8.87;100.00
60852;BME280;48553;50.766;2.900;2023-01-05T08:10:37;101523.91;;;8.89;100.00
60852;BME280;48553;50.766;2.900;2023-01-05T08:13:38;101526.66;;;8.89;100.00
60852;BME280;48553;50.766;2.900;2023-01-05T08:16:57;101534.84;;;8.89;100.00
60852;BME280;48553;50.766;2.900;2023-01-05T08:19:57;101530.06;;;8.94;100.00
60852;BME280;48553;50.766;2.900;2023-01-05T08:22:58;101525.72;;;8.93;100.00
60852;BME280;48553;50.766;2.900;2023-01-05T08:26:06;101522.19;;;8.93;100.00
60852;BME280;48553;50.766;2.900;2023-01-05T08:29:07;101525.72;;;8.93;100.00
60852;BME280;48553;50.766;2.900;2023-01-05T08:32:07;101531.19;;;8.93;100.00
60852;BME280;48553;50.766;2.900;2023-01-05T08:35:08;101523.50;;;8.95;100.00
60852;BME280;48553;50.766;2.900;2023-01-05T08:38:09;101522.59;;;9.00;100.00
60852;BME280;48553;50.766;2.900;2023-01-05T08:41:10;101525.13;;;8.96;100.00
60852;BME280;48553;50.766;2.900;2023-01-05T08:44:12;101530.50;;;9.02;100.00
60852;BME280;48553;50.766;2.900;2023-01-05T08:47:12;101544.06;;;9.07;100.00
60852;BME280;48553;50.766;2.900;2023-01-05T08:50:13;101552.13;;;9.12;100.00
60852;BME280;48553;50.766;2.900;2023-01-05T08:53:13;101545.25;;;9.14;100.00
60852;BME280;48553;50.766;2.900;2023-01-05T08:56:14;101547.38;;;9.17;100.00
60852;BME280;48553;50.766;2.900;2023-01-05T08:59:14;101538.84;;;9.19;100.00
60852;BME280;48553;50.766;2.900;2023-01-05T09:02:15;101547.56;;;9.21;100.00
60852;BME280;48553;50.766;2.900;2023-01-05T09:05:15;101544.53;;;9.23;100.00
60852;BME280;48553;50.766;2.900;2023-01-05T09:08:16;101536.03;;;9.47;100.00
60852;BME280;48553;50.766;2.900;2023-01-05T09:11:21;101543.09;;;9.61;98.96
60852;BME280;48553;50.766;2.900;2023-01-05T09:14:22;101542.38;;;9.70;98.80
60852;BME280;48553;50.766;2.900;2023-01-05T09:17:23;101545.03;;;9.61;98.67
60852;BME280;48553;50.766;2.900;2023-01-05T09:20:23;101551.44;;;9.56;99.18
60852;BME280;48553;50.766;2.900;2023-01-05T09:23:23;101560.75;;;9.55;99.46
60852;BME280;48553;50.766;2.900;2023-01-05T09:26:24;101539.19;;;9.54;99.95
60852;BME280;48553;50.766;2.900;2023-01-05T09:29:24;101545.13;;;9.56;99.84
60852;BME280;48553;50.766;2.900;2023-01-05T09:32:25;101549.84;;;9.78;99.21
60852;BME280;48553;50.766;2.900;2023-01-05T09:35:25;101561.59;;;10.01;98.07
60852;BME280;48553;50.766;2.900;2023-01-05T09:38:26;101552.34;;;9.88;97.88
60852;BME280;48553;50.766;2.900;2023-01-05T09:41:59;101552.63;;;9.64;99.40
60852;BME280;48553;50.766;2.900;2023-01-05T09:45:04;101543.72;;;9.58;100.00
60852;BME280;48553;50.766;2.900;2023-01-05T09:48:10;101551.75;;;9.55;100.00
60852;BME280;48553;50.766;2.900;2023-01-05T09:51:12;101560.75;;;9.55;100.00
60852;BME280;48553;50.766;2.900;2023-01-05T09:54:17;101554.19;;;9.56;100.00
60852;BME280;48553;50.766;2.900;2023-01-05T09:57:22;101550.31;;;9.57;100.00
60852;BME280;48553;50.766;2.900;2023-01-05T10:00:25;101557.88;;;9.60;100.00
60852;BME280;48553;50.766;2.900;2023-01-05T10:03:26;101550.50;;;9.61;100.00
60852;BME280;48553;50.766;2.900;2023-01-05T10:06:29;101552.13;;;9.62;100.00
60852;BME280;48553;50.766;2.900;2023-01-05T10:09:37;101556.16;;;9.65;100.00
60852;BME280;48553;50.766;2.900;2023-01-05T10:12:45;101555.88;;;9.66;100.00
60852;BME280;48553;50.766;2.900;2023-01-05T10:16:02;101554.44;;;9.69;100.00
60852;BME280;48553;50.766;2.900;2023-01-05T10:19:03;101559.91;;;9.69;100.00
60852;BME280;48553;50.766;2.900;2023-01-05T10:28:57;101551.91;;;9.72;100.00
60852;BME280;48553;50.766;2.900;2023-01-05T10:41:49;101560.28;;;9.76;100.00
60852;BME280;48553;50.766;2.900;2023-01-05T10:44:59;101547.09;;;9.78;100.00
60852;BME280;48553;50.766;2.900;2023-01-05T10:48:03;101555.50;;;9.81;100.00
60852;BME280;48553;50.766;2.900;2023-01-05T10:51:09;101543.63;;;9.86;100.00
60852;BME280;48553;50.766;2.900;2023-01-05T10:54:21;101546.84;;;9.88;100.00
60852;BME280;48553;50.766;2.900;2023-01-05T11:00:58;101547.84;;;9.92;100.00
60852;BME280;48553;50.766;2.900;2023-01-05T11:04:12;101536.13;;;10.00;100.00
60852;BME280;48553;50.766;2.900;2023-01-05T11:07:14;101539.69;;;10.01;100.00
60852;BME280;48553;50.766;2.900;2023-01-05T11:10:25;101531.16;;;10.02;100.00
60852;BME280;48553;50.766;2.900;2023-01-05T11:13:32;101529.91;;;10.09;100.00
60852;BME280;48553;50.766;2.900;2023-01-05T11:16:34;101529.41;;;10.07;100.00
60852;BME280;48553;50.766;2.900;2023-01-05T11:19:36;101525.75;;;10.11;100.00
60852;BME280;48553;50.766;2.900;2023-01-05T11:22:40;101527.84;;;10.14;100.00
60852;BME280;48553;50.766;2.900;2023-01-05T11:25:42;101521.38;;;10.10;100.00
60852;BME280;48553;50.766;2.900;2023-01-05T11:32:00;101511.09;;;10.16;100.00
60852;BME280;48553;50.766;2.900;2023-01-05T11:35:01;101509.66;;;10.18;100.00
60852;BME280;48553;50.766;2.900;2023-01-05T11:38:02;101509.34;;;10.20;100.00
60852;BME280;48553;50.766;2.900;2023-01-05T11:41:02;101507.13;;;10.22;100.00
60852;BME280;48553;50.766;2.900;2023-01-05T11:44:03;101499.38;;;10.24;100.00
60852;BME280;48553;50.766;2.900;2023-01-05T11:47:05;101494.06;;;10.28;100.00
60852;BME280;48553;50.766;2.900;2023-01-05T11:56:30;101485.63;;;10.38;100.00
60852;BME280;48553;50.766;2.900;2023-01-05T11:59:31;101481.56;;;10.35;100.00
60852;BME280;48553;50.766;2.900;2023-01-05T12:02:44;101485.47;;;10.43;100.00
60852;BME280;48553;50.766;2.900;2023-01-05T12:05:50;101489.50;;;10.45;100.00
60852;BME280;48553;50.766;2.900;2023-01-05T12:09:00;101479.66;;;10.44;100.00
60852;BME280;48553;50.766;2.900;2023-01-05T12:26:26;101470.50;;;10.49;100.00
60852;BME280;48553;50.766;2.900;2023-01-05T12:49:50;101458.94;;;10.61;100.00
60852;BME280;48553;50.766;2.900;2023-01-05T12:53:18;101459.75;;;10.61;100.00
60852;BME280;48553;50.766;2.900;2023-01-05T12:56:52;101468.75;;;10.62;100.00
60852;BME280;48553;50.766;2.900;2023-01-05T13:00:07;101471.19;;;10.63;100.00
60852;BME280;48553;50.766;2.900;2023-01-05T13:03:33;101466.81;;;10.62;100.00
60852;BME280;48553;50.766;2.900;2023-01-05T13:06:38;101465.72;;;10.63;100.00
60852;BME280;48553;50.766;2.900;2023-01-05T13:09:41;101473.94;;;10.63;100.00
60852;BME280;48553;50.766;2.900;2023-01-05T13:12:44;101466.22;;;10.65;100.00
60852;BME280;48553;50.766;2.900;2023-01-05T13:16:12;101461.22;;;10.68;100.00
60852;BME280;48553;50.766;2.900;2023-01-05T13:19:24;101451.53;;;10.70;100.00
60852;BME280;48553;50.766;2.900;2023-01-05T13:22:31;101456.38;;;10.73;100.00
60852;BME280;48553;50.766;2.900;2023-01-05T13:25:48;101457.34;;;10.77;100.00
60852;BME280;48553;50.766;2.900;2023-01-05T13:28:52;101459.44;;;10.80;100.00
60852;BME280;48553;50.766;2.900;2023-01-05T13:42:22;101447.38;;;10.81;100.00
60852;BME280;48553;50.766;2.900;2023-01-05T13:49:20;101442.19;;;10.80;100.00
60852;BME280;48553;50.766;2.900;2023-01-05T13:52:48;101442.38;;;10.83;100.00
60852;BME280;48553;50.766;2.900;2023-01-05T13:56:05;101433.31;;;10.83;100.00
60852;BME280;48553;50.766;2.900;2023-01-05T13:59:23;101431.72;;;10.82;100.00
60852;BME280;48553;50.766;2.900;2023-01-05T14:02:28;101440.44;;;10.84;100.00
60852;BME280;48553;50.766;2.900;2023-01-05T14:05:45;101440.44;;;10.84;100.00
60852;BME280;48553;50.766;2.900;2023-01-05T14:08:52;101438.97;;;10.86;100.00
60852;BME280;48553;50.766;2.900;2023-01-05T14:15:35;101442.69;;;10.82;100.00
60852;BME280;48553;50.766;2.900;2023-01-05T14:18:51;101433.66;;;10.81;100.00
60852;BME280;48553;50.766;2.900;2023-01-05T14:31:38;101432.03;;;10.80;100.00
60852;BME280;48553;50.766;2.900;2023-01-05T14:34:52;101430.56;;;10.83;100.00
60852;BME280;48553;50.766;2.900;2023-01-05T14:40:59;101424.28;;;10.82;100.00
60852;BME280;48553;50.766;2.900;2023-01-05T14:44:16;101429.47;;;10.84;100.00
60852;BME280;48553;50.766;2.900;2023-01-05T14:47:33;101424.28;;;10.82;100.00
60852;BME280;48553;50.766;2.900;2023-01-05T14:50:37;101434.16;;;10.83;100.00
60852;BME280;48553;50.766;2.900;2023-01-05T14:53:44;101432.53;;;10.82;100.00
60852;BME280;48553;50.766;2.900;2023-01-05T15:00:41;101425.44;;;10.81;100.00
60852;BME280;48553;50.766;2.900;2023-01-05T15:03:56;101425.44;;;10.81;100.00
60852;BME280;48553;50.766;2.900;2023-01-05T15:10:47;101427.03;;;10.82;100.00
60852;BME280;48553;50.766;2.900;2023-01-05T15:14:09;101429.28;;;10.80;100.00
60852;BME280;48553;50.766;2.900;2023-01-05T15:21:14;101425.75;;;10.80;100.00
60852;BME280;48553;50.766;2.900;2023-01-05T15:24:54;101418.66;;;10.79;100.00
60852;BME280;48553;50.766;2.900;2023-01-05T15:34:47;101410.75;;;10.77;100.00
60852;BME280;48553;50.766;2.900;2023-01-05T15:37:51;101405.75;;;10.79;100.00
60852;BME280;48553;50.766;2.900;2023-01-05T15:40:59;101406.88;;;10.78;100.00
60852;BME280;48553;50.766;2.900;2023-01-05T15:44:01;101412.34;;;10.78;100.00
60852;BME280;48553;50.766;2.900;2023-01-05T15:47:02;101405.25;;;10.77;100.00
60852;BME280;48553;50.766;2.900;2023-01-05T15:50:04;101396.56;;;10.75;100.00
60852;BME280;48553;50.766;2.900;2023-01-05T15:53:28;101396.56;;;10.75;100.00
60852;BME280;48553;50.766;2.900;2023-01-05T15:59:36;101390.25;;;10.75;100.00
60852;BME280;48553;50.766;2.900;2023-01-05T16:02:38;101387.53;;;10.75;100.00
60852;BME280;48553;50.766;2.900;2023-01-05T16:05:38;101395.75;;;10.75;100.00
60852;BME280;48553;50.766;2.900;2023-01-05T16:08:46;101394.94;;;10.74;100.00
60852;BME280;48553;50.766;2.900;2023-01-05T16:11:48;101386.72;;;10.74;100.00
60852;BME280;48553;50.766;2.900;2023-01-05T16:14:54;101379.59;;;10.73;100.00
60852;BME280;48553;50.766;2.900;2023-01-05T16:18:00;101383.16;;;10.74;100.00
60852;BME280;48553;50.766;2.900;2023-01-05T16:21:13;101376.06;;;10.73;100.00
60852;BME280;48553;50.766;2.900;2023-01-05T16:24:31;101378.00;;;10.72;100.00
60852;BME280;48553;50.766;2.900;2023-01-05T16:27:38;101381.88;;;10.71;100.00
60852;BME280;48553;50.766;2.900;2023-01-05T16:30:42;101389.59;;;10.69;100.00
60852;BME280;48553;50.766;2.900;2023-01-05T16:33:43;101390.75;;;10.68;100.00
60852;BME280;48553;50.766;2.900;2023-01-05T16:37:14;101387.19;;;10.68;100.00
60852;BME280;48553;50.766;2.900;2023-01-05T16:40:19;101376.72;;;10.70;100.00
60852;BME280;48553;50.766;2.900;2023-01-05T16:43:40;101376.72;;;10.70;100.00
60852;BME280;48553;50.766;2.900;2023-01-05T16:46:41;101380.56;;;10.69;100.00
60852;BME280;48553;50.766;2.900;2023-01-05T16:49:42;101380.88;;;10.67;100.00
60852;BME280;48553;50.766;2.900;2023-01-05T16:53:25;101388.31;;;10.66;100.00
60852;BME280;48553;50.766;2.900;2023-01-05T16:56:43;101389.44;;;10.65;100.00
60852;BME280;48553;50.766;2.900;2023-01-05T16:59:48;101386.72;;;10.65;100.00
60852;BME280;48553;50.766;2.900;2023-01-05T17:02:50;101381.22;;;10.65;100.00
60852;BME280;48553;50.766;2.900;2023-01-05T17:05:53;101387.81;;;10.64;100.00
60852;BME280;48553;50.766;2.900;2023-01-05T17:08:57;101382.34;;;10.64;100.00
60852;BME280;48553;50.766;2.900;2023-01-05T17:11:58;101379.94;;;10.63;100.00
60852;BME280;48553;50.766;2.900;2023-01-05T17:15:01;101383.47;;;10.63;100.00
60852;BME280;48553;50.766;2.900;2023-01-05T17:21:18;101381.53;;;10.64;100.00
60852;BME280;48553;50.766;2.900;2023-01-05T17:24:20;101383.78;;;10.62;100.00
60852;BME280;48553;50.766;2.900;2023-01-05T17:27:20;101377.50;;;10.61;100.00
60852;BME280;48553;50.766;2.900;2023-01-05T17:30:21;101379.44;;;10.61;100.00
60852;BME280;48553;50.766;2.900;2023-01-05T17:33:22;101378.31;;;10.62;100.00
60852;BME280;48553;50.766;2.900;2023-01-05T17:36:31;101373.13;;;10.60;100.00
60852;BME280;48553;50.766;2.900;2023-01-05T17:39:31;101372.34;;;10.60;100.00
60852;BME280;48553;50.766;2.900;2023-01-05T17:42:32;101372.69;;;10.58;100.00
60852;BME280;48553;50.766;2.900;2023-01-05T17:45:42;101373.47;;;10.59;100.00
60852;BME280;48553;50.766;2.900;2023-01-05T17:48:43;101380.06;;;10.58;100.00
60852;BME280;48553;50.766;2.900;2023-01-05T17:51:43;101378.16;;;10.58;100.00
60852;BME280;48553;50.766;2.900;2023-01-05T17:54:44;101376.03;;;10.55;100.00
60852;BME280;48553;50.766;2.900;2023-01-05T17:57:45;101376.03;;;10.55;100.00
60852;BME280;48553;50.766;2.900;2023-01-05T18:00:46;101368.16;;;10.54;100.00
60852;BME280;48553;50.766;2.900;2023-01-05T18:03:47;101371.19;;;10.52;100.00
60852;BME280;48553;50.766;2.900;2023-01-05T18:06:47;101374.75;;;10.53;100.00
60852;BME280;48553;50.766;2.900;2023-01-05T18:09:48;101376.19;;;10.50;100.00
60852;BME280;48553;50.766;2.900;2023-01-05T18:12:48;101364.09;;;10.51;100.00
60852;BME280;48553;50.766;2.900;2023-01-05T18:15:49;101370.41;;;10.52;100.00
60852;BME280;48553;50.766;2.900;2023-01-05T18:18:51;101365.53;;;10.49;100.00
60852;BME280;48553;50.766;2.900;2023-01-05T18:21:52;101365.53;;;10.49;100.00